Time;durP1;ratioP1;P1;durP2;ratioP2;P2;SDS_P1;SDS_P2;PMS_P1;PMS_P2;Temp;Humidity;BMP_temperature;BMP_pressure;BME280_temperature;BME280_humidity;BME280_pressure;Samples;Min_cycle;Max_cycle;Signal;HPM_P1;HPM_P2
2022/04/16 00:01:17;;;;;;;;;;;;;;;21.39;28.01;97793.53;5077489;28;937;-75
2022/04/16 00:03:43;;;;;;;;;;;;;;;21.22;28.19;97792.78;5094220;28;1898;-75
2022/04/16 00:06:09;;;;;;;;;;;;;;;21.35;27.76;97781.53;5094681;28;1038;-76
2022/04/16 00:08:34;;;;;;;;;;;;;;;21.05;28.26;97786.41;5094655;28;925;-76
2022/04/16 00:11:00;;;;;;;;;;;;;;;21.76;27.54;97783.53;5094870;28;959;-75
2022/04/16 00:13:26;;;;;;;;;;;;;;;22.03;26.97;97780.28;5075052;28;1666;-76
2022/04/16 00:15:54;;;;;;;;;;;;;;;21.59;27.64;97777.19;5074412;28;964;-76
2022/04/16 00:18:20;;;;;;;;;;;;;;;21.29;27.73;97779.22;5074079;28;952;-75
2022/04/16 00:20:45;;;;;;;;;;;;;;;21.20;28.13;97770.63;5074112;28;1173;-75
2022/04/16 00:23:11;;;;;;;;;;;;;;;21.10;28.08;97763.22;5074098;28;998;-76
2022/04/16 00:25:36;;;;;;;;;;;;;;;21.23;28.06;97761.22;5074150;28;1918;-75
2022/04/16 00:28:02;;;;;;;;;;;;;;;21.51;28.19;97750.34;5082217;28;1671;-76
2022/04/16 00:30:28;;;;;;;;;;;;;;;21.69;27.63;97750.56;5092208;28;1865;-74
2022/04/16 00:32:55;;;;;;;;;;;;;;;21.93;27.41;97741.75;5094311;28;946;-76
2022/04/16 00:35:21;;;;;;;;;;;;;;;21.49;27.75;97747.16;5080351;28;1097;-76
2022/04/16 00:37:46;;;;;;;;;;;;;;;21.28;27.83;97748.56;5076308;28;951;-76
2022/04/16 00:40:12;;;;;;;;;;;;;;;21.26;28.08;97745.38;5076206;28;1120;-75
2022/04/16 00:42:44;;;;;;;;;;;;;;;21.31;27.96;97739.22;5076308;28;918;-76
2022/04/16 00:45:09;;;;;;;;;;;;;;;21.20;28.37;97742.31;5073882;28;1906;-76
2022/04/16 00:47:36;;;;;;;;;;;;;;;21.17;28.41;97746.03;5056374;28;1000;-76
2022/04/16 00:50:02;;;;;;;;;;;;;;;21.07;28.63;97745.09;5056372;28;1021;-76
2022/04/16 00:52:28;;;;;;;;;;;;;;;21.30;28.15;97752.56;5053227;28;1003;-75
2022/04/16 00:54:54;;;;;;;;;;;;;;;21.79;27.33;97738.13;5053846;28;1149;-75
2022/04/16 00:57:19;;;;;;;;;;;;;;;21.78;27.28;97753.53;5053483;28;1109;-76
2022/04/16 00:59:45;;;;;;;;;;;;;;;21.48;27.75;97745.56;5058627;28;1674;-76
2022/04/16 01:02:10;;;;;;;;;;;;;;;21.41;28.03;97740.13;5073647;28;1088;-76
2022/04/16 01:04:36;;;;;;;;;;;;;;;21.24;27.93;97742.19;5073140;28;1918;-76
2022/04/16 01:07:01;;;;;;;;;;;;;;;21.33;28.51;97739.53;5073375;28;941;-76
2022/04/16 01:09:27;;;;;;;;;;;;;;;21.81;27.55;97729.16;5056401;28;937;-75
2022/04/16 01:11:52;;;;;;;;;;;;;;;22.02;27.16;97714.34;5073326;28;1027;-76
2022/04/16 01:14:19;;;;;;;;;;;;;;;21.42;27.98;97727.56;5068637;28;1745;-76
2022/04/16 01:16:45;;;;;;;;;;;;;;;21.31;28.13;97723.03;5053358;28;926;-75
2022/04/16 01:19:10;;;;;;;;;;;;;;;21.22;28.31;97722.84;5053044;28;973;-76
2022/04/16 01:21:36;;;;;;;;;;;;;;;21.25;28.00;97719.13;5036216;28;1147;-75
2022/04/16 01:24:01;;;;;;;;;;;;;;;21.21;28.10;97718.44;5054614;28;1909;-76
2022/04/16 01:26:29;;;;;;;;;;;;;;;21.11;28.51;97711.06;5055623;28;1010;-75
2022/04/16 01:28:54;;;;;;;;;;;;;;;21.15;28.41;97708.91;5058194;28;1647;-76
2022/04/16 01:31:20;;;;;;;;;;;;;;;21.09;28.35;97707.88;5107032;28;946;-75
2022/04/16 01:33:45;;;;;;;;;;;;;;;21.52;28.14;97712.28;5075389;28;940;-76
2022/04/16 01:36:12;;;;;;;;;;;;;;;21.85;27.24;97705.16;5075581;28;935;-75
2022/04/16 01:38:37;;;;;;;;;;;;;;;21.47;27.91;97710.03;5075350;28;921;-76
2022/04/16 01:41:03;;;;;;;;;;;;;;;21.39;28.05;97714.31;5075328;28;1048;-75
2022/04/16 01:43:29;;;;;;;;;;;;;;;21.35;28.02;97716.44;5073117;28;1910;-75
2022/04/16 01:45:55;;;;;;;;;;;;;;;21.41;28.12;97717.50;5055414;28;997;-76
2022/04/16 01:48:22;;;;;;;;;;;;;;;21.71;27.55;97722.63;5055335;28;917;-74
2022/04/16 01:50:48;;;;;;;;;;;;;;;22.01;27.12;97714.78;5055414;28;845;-76
2022/04/16 01:53:14;;;;;;;;;;;;;;;21.56;27.46;97725.09;5055044;28;924;-76
2022/04/16 01:55:39;;;;;;;;;;;;;;;21.27;28.08;97719.47;5069679;28;1067;-76
2022/04/16 01:58:06;;;;;;;;;;;;;;;21.16;28.33;97724.66;5055151;28;1600;-76
2022/04/16 02:00:32;;;;;;;;;;;;;;;21.43;28.33;97715.78;5062327;28;1678;-75
2022/04/16 02:02:58;;;;;;;;;;;;;;;21.81;27.51;97713.00;5092809;28;1064;-74
2022/04/16 02:05:24;;;;;;;;;;;;;;;21.89;27.18;97712.75;5092868;28;1980;-75
2022/04/16 02:07:50;;;;;;;;;;;;;;;21.41;27.78;97714.66;5092417;28;984;-76
2022/04/16 02:10:16;;;;;;;;;;;;;;;21.37;27.80;97716.81;5075633;28;1044;-75
2022/04/16 02:12:42;;;;;;;;;;;;;;;21.27;28.09;97718.66;5092732;28;1038;-76
2022/04/16 02:15:07;;;;;;;;;;;;;;;21.16;28.32;97719.00;5095524;28;1701;-76
2022/04/16 02:17:33;;;;;;;;;;;;;;;21.23;28.32;97713.09;5112912;28;1795;-76
2022/04/16 02:19:58;;;;;;;;;;;;;;;21.19;28.14;97706.78;5112769;28;988;-76
2022/04/16 02:22:24;;;;;;;;;;;;;;;21.24;28.50;97705.41;5112885;28;1235;-76
2022/04/16 02:24:49;;;;;;;;;;;;;;;21.20;28.56;97705.53;5112746;28;1980;-76
2022/04/16 02:27:15;;;;;;;;;;;;;;;21.19;28.39;97695.47;5111152;28;1757;-76
2022/04/16 02:29:40;;;;;;;;;;;;;;;21.17;28.30;97703.59;5112706;28;1209;-76
2022/04/16 02:32:06;;;;;;;;;;;;;;;21.14;28.44;97704.50;5112866;28;928;-75
2022/04/16 02:34:31;;;;;;;;;;;;;;;21.21;28.24;97698.63;5084724;28;1154;-75
2022/04/16 02:36:58;;;;;;;;;;;;;;;21.75;27.51;97688.50;5074996;28;914;-75
2022/04/16 02:39:23;;;;;;;;;;;;;;;21.92;27.27;97689.19;5074962;28;1020;-76
2022/04/16 02:41:49;;;;;;;;;;;;;;;21.45;27.96;97689.84;5070290;28;1874;-76
2022/04/16 02:47:08;;;;;;;;;;;;;;;21.32;27.99;97690.63;5054922;28;908;-75
2022/04/16 02:49:38;;;;;;;;;;;;;;;21.25;28.11;97688.00;5054545;28;1035;-76
2022/04/16 02:52:04;;;;;;;;;;;;;;;21.75;27.57;97683.63;5054759;28;1206;-76
2022/04/16 02:54:29;;;;;;;;;;;;;;;22.03;27.41;97683.97;5056250;28;1046;-75
2022/04/16 02:56:55;;;;;;;;;;;;;;;21.61;27.78;97681.28;5064941;28;1640;-75
2022/04/16 02:59:21;;;;;;;;;;;;;;;21.42;27.99;97679.44;5070582;28;1791;-75
2022/04/16 03:01:46;;;;;;;;;;;;;;;21.11;28.32;97674.28;5057953;28;1802;-76
2022/04/16 03:04:12;;;;;;;;;;;;;;;21.18;28.18;97676.88;5058000;28;1910;-76
2022/04/16 03:06:37;;;;;;;;;;;;;;;21.21;28.20;97670.34;5058123;28;924;-76
2022/04/16 03:09:03;;;;;;;;;;;;;;;21.61;27.86;97664.28;5057826;28;945;-76
2022/04/16 03:11:28;;;;;;;;;;;;;;;21.94;27.25;97670.47;5058383;28;905;-76
2022/04/16 03:13:53;;;;;;;;;;;;;;;21.59;27.63;97666.75;5057641;28;1107;-76
2022/04/16 03:19:04;;;;;;;;;;;;;;;21.24;28.17;97677.94;5077391;28;902;-75
2022/04/16 03:21:29;;;;;;;;;;;;;;;21.32;28.28;97684.19;5077829;28;1094;-76
2022/04/16 03:23:55;;;;;;;;;;;;;;;21.51;28.28;97677.53;5077560;28;1910;-75
2022/04/16 03:26:20;;;;;;;;;;;;;;;21.76;27.80;97676.75;5077815;28;945;-76
2022/04/16 03:28:46;;;;;;;;;;;;;;;21.73;27.48;97671.97;5077243;28;1122;-76
2022/04/16 03:31:11;;;;;;;;;;;;;;;21.45;28.04;97672.88;5060027;28;1701;-76
2022/04/16 03:33:36;;;;;;;;;;;;;;;21.31;28.16;97680.56;5057384;28;1046;-76
2022/04/16 03:36:02;;;;;;;;;;;;;;;21.20;28.41;97685.72;5057430;28;999;-75
2022/04/16 03:38:28;;;;;;;;;;;;;;;21.41;28.31;97684.31;5088584;28;956;-75
2022/04/16 03:40:53;;;;;;;;;;;;;;;21.83;27.71;97682.16;5057660;28;932;-76
2022/04/16 03:43:20;;;;;;;;;;;;;;;21.72;27.47;97684.56;5057418;28;987;-76
2022/04/16 03:45:46;;;;;;;;;;;;;;;21.50;27.89;97681.63;5072751;28;1914;-75
2022/04/16 03:48:11;;;;;;;;;;;;;;;21.41;27.98;97680.69;5077355;28;849;-75
2022/04/16 03:50:37;;;;;;;;;;;;;;;21.31;28.08;97689.06;5077173;28;1143;-76
2022/04/16 03:53:02;;;;;;;;;;;;;;;21.20;28.12;97691.38;5077437;28;1201;-75
2022/04/16 04:00:57;;;;;;;;;;;;;;;21.09;28.77;97685.25;5099718;28;1812;-76
2022/04/16 04:03:22;;;;;;;;;;;;;;;21.19;28.63;97689.81;5094659;28;847;-75
2022/04/16 04:05:53;;;;;;;;;;;;;;;21.03;28.80;97687.03;5093844;28;1910;-76
2022/04/16 04:08:18;;;;;;;;;;;;;;;21.20;28.44;97691.38;5094244;28;1753;-75
2022/04/16 04:10:45;;;;;;;;;;;;;;;21.49;28.42;97693.38;5094402;28;1034;-75
2022/04/16 04:13:10;;;;;;;;;;;;;;;21.75;27.66;97685.66;5094752;28;908;-76
2022/04/16 04:15:36;;;;;;;;;;;;;;;21.71;27.60;97694.31;5094659;28;1025;-75
2022/04/16 04:18:02;;;;;;;;;;;;;;;21.50;28.03;97709.91;5094459;28;1025;-76
2022/04/16 04:20:28;;;;;;;;;;;;;;;21.33;28.36;97706.38;5094746;28;1042;-76
2022/04/16 04:22:53;;;;;;;;;;;;;;;21.22;28.34;97700.22;5094238;28;1045;-76
2022/04/16 04:25:19;;;;;;;;;;;;;;;21.55;28.22;97711.38;5076055;28;1914;-76
2022/04/16 04:27:44;;;;;;;;;;;;;;;22.00;27.36;97704.69;5056538;28;924;-75
2022/04/16 04:30:10;;;;;;;;;;;;;;;21.57;27.73;97708.91;5056752;28;912;-75
2022/04/16 04:32:38;;;;;;;;;;;;;;;21.36;28.12;97692.56;5057228;28;953;-75
2022/04/16 04:35:04;;;;;;;;;;;;;;;21.31;28.22;97703.22;5070330;28;1018;-75
2022/04/16 04:37:29;;;;;;;;;;;;;;;21.28;28.45;97709.72;5056496;28;904;-75
2022/04/16 04:39:55;;;;;;;;;;;;;;;21.25;28.61;97716.31;5056281;28;945;-76
2022/04/16 04:42:27;;;;;;;;;;;;;;;21.19;28.55;97714.47;5056327;28;1006;-76
2022/04/16 04:44:52;;;;;;;;;;;;;;;21.19;28.72;97709.63;5056037;28;1969;-75
2022/04/16 04:47:18;;;;;;;;;;;;;;;21.37;28.39;97706.28;5056438;28;937;-76
2022/04/16 04:49:43;;;;;;;;;;;;;;;21.97;27.46;97703.56;5056198;28;975;-76
2022/04/16 04:52:09;;;;;;;;;;;;;;;21.96;27.24;97706.84;5056430;28;923;-75
2022/04/16 04:54:34;;;;;;;;;;;;;;;21.55;27.89;97700.03;5055978;28;902;-76
2022/04/16 04:57:00;;;;;;;;;;;;;;;21.36;28.27;97709.56;5056209;28;943;-76
2022/04/16 04:59:25;;;;;;;;;;;;;;;21.24;28.54;97714.72;5055890;28;923;-77
2022/04/16 05:01:50;;;;;;;;;;;;;;;21.22;28.80;97711.53;5088553;28;920;-76
2022/04/16 05:04:16;;;;;;;;;;;;;;;21.87;27.68;97712.41;5056077;28;1902;-76
2022/04/16 05:06:41;;;;;;;;;;;;;;;21.91;27.56;97715.91;5055832;28;896;-76
2022/04/16 05:09:07;;;;;;;;;;;;;;;21.46;28.32;97714.09;5055599;28;979;-75
2022/04/16 05:11:32;;;;;;;;;;;;;;;21.31;28.36;97720.19;5056118;28;924;-75
2022/04/16 05:13:58;;;;;;;;;;;;;;;21.35;28.35;97707.94;5055733;28;948;-76
2022/04/16 05:16:23;;;;;;;;;;;;;;;21.40;28.01;97718.72;5055952;28;996;-76
2022/04/16 05:18:49;;;;;;;;;;;;;;;21.22;28.43;97711.53;5054567;28;988;-75
2022/04/16 05:21:14;;;;;;;;;;;;;;;21.19;28.60;97715.28;5055665;28;1457;-76
2022/04/16 05:23:40;;;;;;;;;;;;;;;21.09;28.86;97722.03;5055292;28;1914;-76
2022/04/16 05:26:07;;;;;;;;;;;;;;;21.15;28.58;97725.91;5055736;28;922;-76
2022/04/16 05:28:32;;;;;;;;;;;;;;;21.12;28.62;97723.94;5055290;28;1010;-76
2022/04/16 05:30:59;;;;;;;;;;;;;;;21.12;28.91;97732.44;5070164;28;946;-76
2022/04/16 05:36:08;;;;;;;;;;;;;;;21.62;28.10;97742.31;5055698;28;943;-76
2022/04/16 05:38:34;;;;;;;;;;;;;;;21.91;27.76;97738.56;5055207;28;961;-76
2022/04/16 05:40:59;;;;;;;;;;;;;;;21.52;28.07;97746.25;5055799;28;951;-75
2022/04/16 05:43:25;;;;;;;;;;;;;;;21.39;28.51;97742.59;5055139;28;940;-76
2022/04/16 05:45:50;;;;;;;;;;;;;;;21.41;28.25;97745.78;5055447;28;1979;-76
2022/04/16 05:48:16;;;;;;;;;;;;;;;21.30;28.37;97746.91;5055097;28;964;-75
2022/04/16 05:50:41;;;;;;;;;;;;;;;21.17;28.82;97740.38;5093109;28;998;-75
2022/04/16 05:53:07;;;;;;;;;;;;;;;21.08;28.71;97745.88;5092960;28;947;-76
2022/04/16 05:55:34;;;;;;;;;;;;;;;21.23;28.54;97744.25;5075920;28;975;-76
2022/04/16 05:57:59;;;;;;;;;;;;;;;21.30;28.67;97741.25;5093051;28;1009;-77
2022/04/16 06:00:25;;;;;;;;;;;;;;;21.26;28.85;97746.19;5092992;28;1139;-76
2022/04/16 06:02:51;;;;;;;;;;;;;;;21.12;28.96;97735.28;5093145;28;962;-76
2022/04/16 06:05:16;;;;;;;;;;;;;;;21.62;28.19;97738.69;5093068;28;1979;-77
2022/04/16 06:07:42;;;;;;;;;;;;;;;21.77;27.83;97746.28;5092946;28;795;-76
2022/04/16 06:10:07;;;;;;;;;;;;;;;21.67;28.07;97743.78;5092816;28;988;-76
2022/04/16 06:12:33;;;;;;;;;;;;;;;21.47;28.09;97738.34;5072352;28;1022;-76
2022/04/16 06:14:59;;;;;;;;;;;;;;;21.32;28.50;97738.75;5072560;28;929;-76
2022/04/16 06:17:24;;;;;;;;;;;;;;;21.22;28.74;97739.81;5072417;28;1305;-77
2022/04/16 06:19:50;;;;;;;;;;;;;;;21.43;28.42;97738.44;5072464;28;1087;-75
2022/04/16 06:22:15;;;;;;;;;;;;;;;21.90;27.58;97731.31;5057242;28;1367;-77
2022/04/16 06:24:41;;;;;;;;;;;;;;;21.70;27.85;97735.16;5052219;28;1981;-76
2022/04/16 06:27:07;;;;;;;;;;;;;;;21.40;28.62;97739.34;5052652;28;1015;-74
2022/04/16 06:29:32;;;;;;;;;;;;;;;21.42;28.43;97741.72;5054699;28;945;-77
2022/04/16 06:31:58;;;;;;;;;;;;;;;21.30;28.40;97741.25;5056493;28;1005;-76
2022/04/16 06:34:23;;;;;;;;;;;;;;;21.31;28.57;97742.81;5056219;28;931;-76
2022/04/16 06:36:49;;;;;;;;;;;;;;;21.44;28.35;97740.00;5056409;28;1059;-76
2022/04/16 06:39:15;;;;;;;;;;;;;;;21.19;28.93;97734.25;5039266;28;1034;-76
2022/04/16 06:41:40;;;;;;;;;;;;;;;21.24;28.83;97743.00;5056339;28;950;-76
2022/04/16 06:44:06;;;;;;;;;;;;;;;21.67;28.43;97738.13;5084202;28;1905;-76
2022/04/16 06:46:32;;;;;;;;;;;;;;;21.90;27.86;97722.81;5055958;28;957;-76
2022/04/16 06:48:57;;;;;;;;;;;;;;;21.59;27.96;97734.72;5056109;28;1070;-76
2022/04/16 06:51:23;;;;;;;;;;;;;;;21.39;28.33;97736.94;5056454;28;1107;-76
2022/04/16 06:53:48;;;;;;;;;;;;;;;21.38;28.43;97738.19;5056094;28;953;-76
2022/04/16 06:56:14;;;;;;;;;;;;;;;21.24;28.63;97743.00;5056767;28;992;-78
2022/04/16 06:58:39;;;;;;;;;;;;;;;21.27;28.84;97742.09;5056131;28;1001;-78
2022/04/16 07:01:05;;;;;;;;;;;;;;;21.26;28.52;97734.84;5057404;28;959;-76
2022/04/16 07:03:30;;;;;;;;;;;;;;;21.62;28.22;97721.69;5055978;28;986;-77
2022/04/16 07:05:55;;;;;;;;;;;;;;;21.99;27.83;97728.59;5057030;28;1926;-78
2022/04/16 07:08:21;;;;;;;;;;;;;;;21.56;28.09;97735.63;5073985;28;1304;-76
2022/04/16 07:10:46;;;;;;;;;;;;;;;21.39;28.52;97732.06;5076626;28;1210;-77
2022/04/16 07:13:12;;;;;;;;;;;;;;;21.32;28.50;97738.75;5075753;28;1077;-78
2022/04/16 07:15:38;;;;;;;;;;;;;;;21.43;28.42;97731.97;5076414;28;1193;-78
2022/04/16 07:18:04;;;;;;;;;;;;;;;21.31;28.75;97725.84;5076849;28;1369;-79
2022/04/16 07:20:30;;;;;;;;;;;;;;;21.32;28.79;97721.78;5078832;28;1217;-77
2022/04/16 07:22:55;;;;;;;;;;;;;;;21.13;29.01;97731.19;5077992;28;1276;-78
2022/04/16 07:25:21;;;;;;;;;;;;;;;21.10;29.23;97720.78;5078038;28;1910;-78
2022/04/16 07:27:47;;;;;;;;;;;;;;;21.18;29.16;97733.47;5055517;28;1307;-77
2022/04/16 07:30:13;;;;;;;;;;;;;;;21.53;28.47;97728.81;5055244;28;1241;-77
2022/04/16 07:32:39;;;;;;;;;;;;;;;21.86;28.00;97714.44;5055196;28;1180;-76
2022/04/16 07:35:04;;;;;;;;;;;;;;;22.11;27.66;97716.50;5055896;28;930;-78
2022/04/16 07:37:30;;;;;;;;;;;;;;;22.00;27.65;97718.84;5056453;28;1001;-77
2022/04/16 07:39:55;;;;;;;;;;;;;;;21.58;28.50;97716.16;5055329;28;1004;-78
2022/04/16 07:42:21;;;;;;;;;;;;;;;21.44;28.67;97708.09;5055873;28;979;-77
2022/04/16 07:44:46;;;;;;;;;;;;;;;21.42;28.46;97719.06;5055680;28;2001;-79
2022/04/16 07:47:11;;;;;;;;;;;;;;;21.51;28.50;97722.03;5056158;28;1008;-77
2022/04/16 07:49:37;;;;;;;;;;;;;;;21.28;28.64;97723.88;5055051;28;1170;-77
2022/04/16 07:52:03;;;;;;;;;;;;;;;21.27;29.17;97730.00;5056188;28;1014;-76
2022/04/16 07:54:28;;;;;;;;;;;;;;;21.23;29.15;97724.44;5055397;28;996;-78
2022/04/16 07:56:53;;;;;;;;;;;;;;;21.18;28.99;97722.16;5056167;28;956;-76
2022/04/16 07:59:19;;;;;;;;;;;;;;;21.47;28.62;97729.84;5071834;28;1151;-78
2022/04/16 08:01:44;;;;;;;;;;;;;;;21.88;28.31;97722.50;5077144;28;1570;-78
2022/04/16 08:04:10;;;;;;;;;;;;;;;21.88;28.10;97719.66;5077593;28;1978;-78
2022/04/16 08:06:35;;;;;;;;;;;;;;;21.54;28.57;97721.13;5078180;28;1275;-78
2022/04/16 08:09:01;;;;;;;;;;;;;;;21.38;28.74;97724.84;5077025;28;1204;-78
2022/04/16 08:11:30;;;;;;;;;;;;;;;21.39;28.68;97720.75;5077806;28;1192;-77
2022/04/16 08:13:55;;;;;;;;;;;;;;;21.33;28.90;97723.34;5103775;28;1548;-78
2022/04/16 08:16:21;;;;;;;;;;;;;;;21.37;28.53;97722.47;5106605;28;1196;-78
2022/04/16 08:18:46;;;;;;;;;;;;;;;21.12;29.09;97721.13;5105159;28;1239;-78
2022/04/16 08:21:12;;;;;;;;;;;;;;;21.11;29.04;97721.56;5104634;28;1395;-78
2022/04/16 08:23:43;;;;;;;;;;;;;;;21.21;29.17;97723.31;5073645;28;1206;-78
2022/04/16 08:26:10;;;;;;;;;;;;;;;21.25;29.25;97721.97;5075888;28;1252;-78
2022/04/16 08:28:35;;;;;;;;;;;;;;;21.26;29.14;97712.22;5073903;28;1349;-78
2022/04/16 08:31:01;;;;;;;;;;;;;;;21.09;29.42;97705.06;5075697;28;1240;-77
2022/04/16 08:33:26;;;;;;;;;;;;;;;21.53;28.64;97696.88;5074419;28;913;-78
2022/04/16 08:35:52;;;;;;;;;;;;;;;21.90;28.07;97697.34;5075645;28;1321;-77
2022/04/16 08:38:17;;;;;;;;;;;;;;;21.66;28.38;97700.53;5074594;28;1041;-78
2022/04/16 08:40:43;;;;;;;;;;;;;;;21.57;28.75;97692.69;5075423;28;1084;-77
2022/04/16 08:43:09;;;;;;;;;;;;;;;21.42;28.60;97697.22;5074892;28;982;-77
2022/04/16 08:45:34;;;;;;;;;;;;;;;21.33;29.03;97689.38;5060033;28;1882;-78
2022/04/16 08:48:00;;;;;;;;;;;;;;;21.24;29.15;97696.91;5055588;28;1039;-78
2022/04/16 08:50:25;;;;;;;;;;;;;;;21.27;29.09;97691.16;5071792;28;1124;-77
2022/04/16 08:52:51;;;;;;;;;;;;;;;21.27;29.25;97696.81;5070916;28;1023;-77
2022/04/16 08:55:16;;;;;;;;;;;;;;;21.19;29.10;97686.97;5056686;28;975;-78
2022/04/16 08:57:42;;;;;;;;;;;;;;;21.21;29.46;97692.19;5057837;28;1093;-78
2022/04/16 09:00:07;;;;;;;;;;;;;;;21.61;28.68;97677.66;5057096;28;1023;-78
2022/04/16 09:02:33;;;;;;;;;;;;;;;21.96;28.27;97678.50;5057709;28;945;-78
2022/04/16 09:05:06;;;;;;;;;;;;;;;21.59;28.73;97683.75;5056693;28;1894;-78
2022/04/16 09:07:32;;;;;;;;;;;;;;;21.39;29.14;97686.00;5057648;28;846;-78
2022/04/16 09:10:07;;;;;;;;;;;;;;;21.36;28.92;97684.09;5088840;28;958;-77
2022/04/16 09:12:35;;;;;;;;;;;;;;;21.35;28.71;97674.00;5057537;28;947;-77
2022/04/16 09:15:04;;;;;;;;;;;;;;;21.28;29.07;97670.09;5065981;28;1298;-78
2022/04/16 09:17:31;;;;;;;;;;;;;;;21.38;29.05;97673.88;5077426;28;1310;-77
2022/04/16 09:19:57;;;;;;;;;;;;;;;21.40;29.02;97673.44;5076931;28;1247;-79
2022/04/16 09:22:29;;;;;;;;;;;;;;;21.32;29.28;97670.03;5077538;28;989;-78
2022/04/16 09:24:55;;;;;;;;;;;;;;;21.24;29.15;97671.47;5076958;28;1902;-78
2022/04/16 09:27:20;;;;;;;;;;;;;;;21.22;29.19;97676.78;5077131;28;2107;-78
2022/04/16 09:29:46;;;;;;;;;;;;;;;21.38;29.44;97664.59;5075542;28;1648;-77
2022/04/16 09:32:20;;;;;;;;;;;;;;;21.83;28.32;97665.16;5076518;28;1333;-78
2022/04/16 09:34:46;;;;;;;;;;;;;;;21.79;28.38;97664.50;5075637;28;1693;-78
2022/04/16 09:37:12;;;;;;;;;;;;;;;21.47;29.12;97664.72;5099228;28;1487;-78
2022/04/16 09:39:37;;;;;;;;;;;;;;;21.42;28.99;97656.81;5075322;28;1452;-78
2022/04/16 09:42:03;;;;;;;;;;;;;;;21.28;29.11;97650.31;5076479;28;1468;-77
2022/04/16 09:44:28;;;;;;;;;;;;;;;21.35;29.23;97657.00;5072923;28;1906;-78
2022/04/16 09:46:57;;;;;;;;;;;;;;;21.30;29.11;97656.34;5073478;28;1513;-77
2022/04/16 09:49:23;;;;;;;;;;;;;;;21.32;29.21;97653.84;5073780;28;1044;-75
2022/04/16 09:51:49;;;;;;;;;;;;;;;21.28;29.23;97647.47;5040985;28;992;-77
2022/04/16 09:54:15;;;;;;;;;;;;;;;21.12;29.56;97656.06;5073650;28;981;-78
2022/04/16 09:56:41;;;;;;;;;;;;;;;21.18;29.52;97656.28;5074825;28;948;-78
2022/04/16 09:59:12;;;;;;;;;;;;;;;21.20;29.43;97651.78;5073802;28;1036;-77
2022/04/16 10:01:38;;;;;;;;;;;;;;;21.25;29.74;97645.56;5074269;28;1086;-77
2022/04/16 10:04:04;;;;;;;;;;;;;;;21.90;28.47;97643.53;5074617;28;1914;-77
2022/04/16 10:06:30;;;;;;;;;;;;;;;21.88;28.48;97643.97;5061871;28;1794;-77
2022/04/16 10:08:56;;;;;;;;;;;;;;;21.62;28.74;97643.22;5077139;28;1659;-78
2022/04/16 10:11:42;;;;;;;;;;;;;;;21.33;29.18;97643.31;5077561;28;1599;-77
2022/04/16 10:14:10;;;;;;;;;;;;;;;21.31;29.35;97643.78;5062014;28;2230;-78
2022/04/16 10:16:46;;;;;;;;;;;;;;;21.28;29.43;97646.69;5060787;28;1532;-77
2022/04/16 10:19:18;;;;;;;;;;;;;;;21.40;29.12;97647.94;5078081;28;1443;-78
2022/04/16 10:21:44;;;;;;;;;;;;;;;21.33;29.32;97643.31;5061111;28;1517;-77
2022/04/16 10:24:09;;;;;;;;;;;;;;;21.24;29.54;97646.00;5079119;28;1979;-78
2022/04/16 10:26:38;;;;;;;;;;;;;;;21.39;29.34;97646.38;5080031;28;1512;-78
2022/04/16 10:29:03;;;;;;;;;;;;;;;21.91;28.81;97648.72;5079092;28;1420;-78
2022/04/16 10:31:33;;;;;;;;;;;;;;;21.65;28.75;97647.94;5079575;28;1490;-78
2022/04/16 10:34:05;;;;;;;;;;;;;;;21.59;29.13;97650.56;5101801;28;1517;-76
2022/04/16 10:36:32;;;;;;;;;;;;;;;21.31;29.40;97651.47;5080435;28;962;-79
2022/04/16 10:38:58;;;;;;;;;;;;;;;21.40;29.19;97653.63;5117775;28;1003;-77
2022/04/16 10:41:25;;;;;;;;;;;;;;;21.32;29.45;97653.84;5119056;28;1026;-78
2022/04/16 10:43:55;;;;;;;;;;;;;;;21.40;29.34;97653.63;5117604;28;1910;-78
2022/04/16 10:46:21;;;;;;;;;;;;;;;21.41;29.11;97655.22;5078904;28;1009;-78
2022/04/16 10:48:46;;;;;;;;;;;;;;;21.27;29.34;97657.22;5076674;28;1159;-78
2022/04/16 10:51:12;;;;;;;;;;;;;;;21.38;29.33;97650.47;5076062;28;1014;-78
2022/04/16 10:53:38;;;;;;;;;;;;;;;21.24;29.31;97658.13;5075987;28;989;-78
2022/04/16 10:56:21;;;;;;;;;;;;;;;21.08;29.80;97661.03;5061646;28;1257;-77
2022/04/16 10:58:59;;;;;;;;;;;;;;;21.21;29.44;97653.34;5075999;28;1078;-78
2022/04/16 11:01:25;;;;;;;;;;;;;;;21.28;29.43;97647.47;5077878;28;1070;-77
2022/04/16 11:03:51;;;;;;;;;;;;;;;21.49;29.63;97656.56;5076175;28;1909;-77
2022/04/16 11:06:16;;;;;;;;;;;;;;;21.83;28.76;97653.84;5077723;28;1005;-78
2022/04/16 11:08:42;;;;;;;;;;;;;;;21.80;28.79;97657.56;5076465;28;1034;-78
2022/04/16 11:11:08;;;;;;;;;;;;;;;21.49;29.35;97656.56;5038238;28;1127;-76
2022/04/16 11:13:34;;;;;;;;;;;;;;;21.36;29.44;97655.78;5069442;28;1022;-77
2022/04/16 11:16:01;;;;;;;;;;;;;;;21.48;29.37;97655.00;5057701;28;953;-78
2022/04/16 11:18:35;;;;;;;;;;;;;;;21.44;29.45;97655.09;5075635;28;916;-77
2022/04/16 11:21:03;;;;;;;;;;;;;;;21.35;29.25;97648.53;5077571;28;1262;-77
2022/04/16 11:23:28;;;;;;;;;;;;;;;21.46;29.27;97640.50;5076114;28;1061;-78
2022/04/16 11:34:20;;;;;;;;;;;;;;;21.40;29.50;97639.47;5056438;28;1004;-77
2022/04/16 11:36:49;;;;;;;;;;;;;;;21.23;29.68;97639.53;5057026;28;904;-78
2022/04/16 11:39:24;;;;;;;;;;;;;;;21.33;29.45;97632.78;5056309;28;1060;-78
2022/04/16 11:41:55;;;;;;;;;;;;;;;21.19;29.69;97633.22;5064397;28;1030;-78
2022/04/16 11:44:38;;;;;;;;;;;;;;;21.23;29.76;97622.56;5076428;28;1965;-78
2022/04/16 11:47:07;;;;;;;;;;;;;;;21.11;29.58;97631.84;5077538;28;1025;-79
2022/04/16 11:49:33;;;;;;;;;;;;;;;21.23;29.83;97628.22;5076433;28;927;-78
2022/04/16 11:51:59;;;;;;;;;;;;;;;21.60;29.33;97623.03;5077068;28;960;-78
2022/04/16 11:54:30;;;;;;;;;;;;;;;21.92;28.74;97630.50;5058229;28;1044;-78
2022/04/16 11:56:56;;;;;;;;;;;;;;;21.55;29.27;97620.78;5057243;28;1460;-78
2022/04/16 11:59:23;;;;;;;;;;;;;;;21.46;29.48;97617.88;5056124;28;943;-78
2022/04/16 12:01:55;;;;;;;;;;;;;;;21.38;29.67;97616.50;5065334;28;1073;-79
2022/04/16 12:04:20;;;;;;;;;;;;;;;21.31;29.65;97611.88;5078438;28;1926;-79
2022/04/16 12:06:46;;;;;;;;;;;;;;;21.30;29.73;97615.94;5079130;28;937;-78
2022/04/16 12:09:11;;;;;;;;;;;;;;;21.11;29.94;97614.06;5078117;28;1104;-78
2022/04/16 12:11:37;;;;;;;;;;;;;;;21.27;29.75;97623.25;5078616;28;918;-77
2022/04/16 12:14:02;;;;;;;;;;;;;;;21.43;29.07;97618.75;5115804;28;1119;-78
2022/04/16 12:16:35;;;;;;;;;;;;;;;21.30;29.37;97610.28;5099809;28;1003;-78
2022/04/16 12:19:01;;;;;;;;;;;;;;;21.14;29.90;97605.50;5116160;28;1261;-77
2022/04/16 12:21:26;;;;;;;;;;;;;;;21.20;29.58;97600.84;5079170;28;1276;-78
2022/04/16 12:23:52;;;;;;;;;;;;;;;21.14;29.87;97601.84;5094889;28;1906;-77
2022/04/16 12:26:18;;;;;;;;;;;;;;;21.26;29.64;97599.03;5079903;28;1028;-78
2022/04/16 12:28:47;;;;;;;;;;;;;;;21.53;29.57;97603.47;5077860;28;971;-78
2022/04/16 12:31:13;;;;;;;;;;;;;;;21.81;29.17;97598.88;5076095;28;1011;-77
2022/04/16 12:33:38;;;;;;;;;;;;;;;21.82;29.05;97592.00;5071839;28;1070;-78
2022/04/16 12:36:06;;;;;;;;;;;;;;;21.48;29.49;97590.69;5076416;28;1052;-77
2022/04/16 12:38:31;;;;;;;;;;;;;;;21.38;29.57;97593.84;5074688;28;994;-78
2022/04/16 12:41:09;;;;;;;;;;;;;;;21.39;29.69;97595.44;5076026;28;1094;-77
2022/04/16 12:43:35;;;;;;;;;;;;;;;21.43;29.67;97593.28;5057557;28;1023;-78
2022/04/16 12:46:00;;;;;;;;;;;;;;;21.45;29.33;97587.94;5022007;28;1922;-78
2022/04/16 12:48:26;;;;;;;;;;;;;;;21.39;29.43;97586.94;5014729;28;1065;-78
2022/04/16 12:50:51;;;;;;;;;;;;;;;21.20;29.92;97589.53;5016592;28;1036;-78
2022/04/16 12:53:17;;;;;;;;;;;;;;;21.32;29.67;97591.59;5031646;28;1120;-78
2022/04/16 12:55:42;;;;;;;;;;;;;;;21.16;30.18;97594.50;5035528;28;957;-79
2022/04/16 12:58:07;;;;;;;;;;;;;;;21.77;29.05;97584.09;5034391;28;1024;-79
2022/04/16 13:00:34;;;;;;;;;;;;;;;21.85;28.79;97589.03;5035370;28;978;-76
2022/04/16 13:02:59;;;;;;;;;;;;;;;21.64;29.04;97584.09;5069480;28;1023;-78
2022/04/16 13:05:26;;;;;;;;;;;;;;;21.50;29.60;97588.19;5078049;28;1910;-78
2022/04/16 13:07:52;;;;;;;;;;;;;;;21.46;29.72;97586.72;5077439;28;1262;-78
2022/04/16 13:10:17;;;;;;;;;;;;;;;21.28;29.68;97590.88;5077361;28;1009;-78
2022/04/16 13:12:44;;;;;;;;;;;;;;;21.39;29.57;97584.09;5077686;28;971;-78
2022/04/16 13:15:09;;;;;;;;;;;;;;;21.27;29.92;97586.47;5091353;28;1019;-78
2022/04/16 13:17:35;;;;;;;;;;;;;;;21.30;29.84;97577.13;5078279;28;990;-78